Green River, WY

7:00 PM MDT on August 30, 2015 (GMT -0600)
College Hill | | Change Station
CLOSE
Current Station
Personal Weather Station
Location: Rock Springs, WY
Elevation: 6488 ft
Nearby Weather Stations

Elev 6488 ft 41.59 °N, 109.23 °W | Updated 1 minute ago

Clear
Clear
72.8 °F
Feels Like 77 °F
N
7.0
Wind Variable Wind from WNW
Gusts 10.0 mph

Today
High -- | Low -- °F
--% Chance of Precip.
Yesterday
High -- | Low -- °F
Precip. -- in
6:41 AM 7:54 PM
Full, 98% visible
Pressure 29.85 in
Visibility 10.0 miles
Clouds Mostly Cloudy 9000 ft
Heat Index 77 °F
Dew Point 46 °F
Humidity 38%
Rainfall 0.00 in
Snow Depth Not available.
UV 0 out of 12
Pollen 10.00 out of 12
Air Quality Not available.
Flu Activity Not available.
METAR KRKS 310054Z AUTO 26012KT 10SM BKN090 22/10 A3011 RMK AO2 LTG DSNT N SLP106 T02170100
Pressure 29.85 in
Visibility 10.0 miles
Clouds Mostly Cloudy 9000 ft
Heat Index 77 °F
Dew Point 46 °F
Humidity 38%
Rainfall 0.00 in
Snow Depth Not available.
UV 0 out of 12
Pollen 10.00 out of 12
Air Quality Not available.
Flu Activity Not available.
METAR KRKS 310054Z AUTO 26012KT 10SM BKN090 22/10 A3011 RMK AO2 LTG DSNT N SLP106 T02170100

10-Day Weather Forecast

×

Almanac

Astronomy

Aug. 30, 2015 Rise Set
Actual Time
Civil Twilight
Nautical Twilight
Astronomical Twilight
Moon
Length of Visible Light
Length of Day
Tomorrow will be .
, % of the Moon is Illuminated

Today's Extremes

State Highs State Lows

Community

WunderPhotos

Upload Photos

1,851,126 photos uploaded!

WunderBlogs® & News

Nearby

Air Quality

  Air Quality AQ Index Pollutant
Not available.

Snow Depth

Station Depth Elevation

Earthquake Activity

City Distance Mag. Time & Date
Minimum magnitude displayed is 2.5.

Coastal Water Temperatures

Place Temperature

Stations

Nearby Weather Stations

Station Location Temp. Windchill Dew Point Humidity Wind Precip. Elev Updated Type